sensor_id;sensor_type;location;lat;lon;timestamp;temperature;humidity
16253;DHT22;8234;41.480;2.306;2023-01-09T00:00:54;15.10;99.90
16253;DHT22;8234;41.480;2.306;2023-01-09T00:10:59;14.80;99.90
16253;DHT22;8234;41.480;2.306;2023-01-09T00:21:07;14.70;99.90
16253;DHT22;8234;41.480;2.306;2023-01-09T00:31:13;14.40;99.90
16253;DHT22;8234;41.480;2.306;2023-01-09T00:41:21;14.10;99.90
16253;DHT22;8234;41.480;2.306;2023-01-09T00:51:27;14.50;99.90
16253;DHT22;8234;41.480;2.306;2023-01-09T01:01:31;14.70;99.90
16253;DHT22;8234;41.480;2.306;2023-01-09T01:11:36;14.80;99.90
16253;DHT22;8234;41.480;2.306;2023-01-09T01:21:40;14.70;99.90
16253;DHT22;8234;41.480;2.306;2023-01-09T01:31:45;14.50;99.90
16253;DHT22;8234;41.480;2.306;2023-01-09T01:41:49;14.20;99.90
16253;DHT22;8234;41.480;2.306;2023-01-09T01:51:55;13.60;99.90
16253;DHT22;8234;41.480;2.306;2023-01-09T02:02:00;13.60;99.90
16253;DHT22;8234;41.480;2.306;2023-01-09T02:12:25;13.30;99.90
16253;DHT22;8234;41.480;2.306;2023-01-09T02:22:35;12.40;99.90
16253;DHT22;8234;41.480;2.306;2023-01-09T02:32:55;13.60;99.90
16253;DHT22;8234;41.480;2.306;2023-01-09T02:43:01;14.80;99.90
16253;DHT22;8234;41.480;2.306;2023-01-09T02:53:25;14.80;99.90
16253;DHT22;8234;41.480;2.306;2023-01-09T03:03:39;14.60;99.90
16253;DHT22;8234;41.480;2.306;2023-01-09T03:13:50;13.80;99.90
16253;DHT22;8234;41.480;2.306;2023-01-09T03:23:57;13.20;99.90
16253;DHT22;8234;41.480;2.306;2023-01-09T03:34:03;12.40;99.90
16253;DHT22;8234;41.480;2.306;2023-01-09T03:44:07;12.30;99.90
16253;DHT22;8234;41.480;2.306;2023-01-09T03:54:12;12.60;99.90
16253;DHT22;8234;41.480;2.306;2023-01-09T04:04:16;14.00;99.90
16253;DHT22;8234;41.480;2.306;2023-01-09T04:14:21;14.00;99.90
16253;DHT22;8234;41.480;2.306;2023-01-09T04:24:25;13.80;99.90
16253;DHT22;8234;41.480;2.306;2023-01-09T04:34:31;13.50;99.90
16253;DHT22;8234;41.480;2.306;2023-01-09T04:44:35;13.50;99.90
16253;DHT22;8234;41.480;2.306;2023-01-09T04:54:40;13.60;99.90
16253;DHT22;8234;41.480;2.306;2023-01-09T05:04:44;13.30;99.90
16253;DHT22;8234;41.480;2.306;2023-01-09T05:14:49;12.80;99.90
16253;DHT22;8234;41.480;2.306;2023-01-09T05:24:53;12.80;99.90
16253;DHT22;8234;41.480;2.306;2023-01-09T05:34:59;12.50;99.90
16253;DHT22;8234;41.480;2.306;2023-01-09T05:45:04;12.00;99.90
16253;DHT22;8234;41.480;2.306;2023-01-09T05:55:11;11.60;99.90
16253;DHT22;8234;41.480;2.306;2023-01-09T06:05:15;11.60;99.90
16253;DHT22;8234;41.480;2.306;2023-01-09T06:15:20;11.90;99.90
16253;DHT22;8234;41.480;2.306;2023-01-09T06:25:24;12.40;99.90
16253;DHT22;8234;41.480;2.306;2023-01-09T06:35:46;12.20;99.90
16253;DHT22;8234;41.480;2.306;2023-01-09T06:45:51;12.50;99.90
16253;DHT22;8234;41.480;2.306;2023-01-09T06:55:56;12.70;99.90
16253;DHT22;8234;41.480;2.306;2023-01-09T07:06:00;12.80;99.90
16253;DHT22;8234;41.480;2.306;2023-01-09T07:16:06;12.30;99.90
16253;DHT22;8234;41.480;2.306;2023-01-09T07:26:10;12.20;99.90
16253;DHT22;8234;41.480;2.306;2023-01-09T07:36:15;12.20;99.90
16253;DHT22;8234;41.480;2.306;2023-01-09T07:46:19;11.80;99.90
16253;DHT22;8234;41.480;2.306;2023-01-09T07:56:25;12.20;99.90
16253;DHT22;8234;41.480;2.306;2023-01-09T08:06:29;12.70;99.90
16253;DHT22;8234;41.480;2.306;2023-01-09T08:16:34;13.40;99.90
16253;DHT22;8234;41.480;2.306;2023-01-09T08:26:38;13.60;99.90
16253;DHT22;8234;41.480;2.306;2023-01-09T08:36:43;13.70;99.90
16253;DHT22;8234;41.480;2.306;2023-01-09T08:46:47;13.60;99.90
16253;DHT22;8234;41.480;2.306;2023-01-09T08:57:11;13.60;99.90
16253;DHT22;8234;41.480;2.306;2023-01-09T09:07:14;13.70;99.90
16253;DHT22;8234;41.480;2.306;2023-01-09T09:17:20;13.50;99.90
16253;DHT22;8234;41.480;2.306;2023-01-09T09:27:23;13.60;99.90
16253;DHT22;8234;41.480;2.306;2023-01-09T09:37:29;13.80;99.90
16253;DHT22;8234;41.480;2.306;2023-01-09T09:47:41;13.90;99.90
16253;DHT22;8234;41.480;2.306;2023-01-09T09:58:10;14.10;99.90
16253;DHT22;8234;41.480;2.306;2023-01-09T10:08:37;14.40;99.90
16253;DHT22;8234;41.480;2.306;2023-01-09T10:18:55;14.40;99.90
16253;DHT22;8234;41.480;2.306;2023-01-09T10:39:49;15.30;99.90
16253;DHT22;8234;41.480;2.306;2023-01-09T10:49:55;15.60;99.90
16253;DHT22;8234;41.480;2.306;2023-01-09T11:00:02;16.50;99.90
16253;DHT22;8234;41.480;2.306;2023-01-09T11:10:08;16.60;99.90
16253;DHT22;8234;41.480;2.306;2023-01-09T11:20:16;16.50;99.90
16253;DHT22;8234;41.480;2.306;2023-01-09T11:30:23;17.00;99.90
16253;DHT22;8234;41.480;2.306;2023-01-09T11:40:34;17.70;99.90
16253;DHT22;8234;41.480;2.306;2023-01-09T11:50:40;17.70;99.90
16253;DHT22;8234;41.480;2.306;2023-01-09T12:01:03;18.20;99.90
16253;DHT22;8234;41.480;2.306;2023-01-09T12:11:26;18.40;99.90
16253;DHT22;8234;41.480;2.306;2023-01-09T12:21:40;18.70;99.90
16253;DHT22;8234;41.480;2.306;2023-01-09T12:32:07;19.10;99.90
16253;DHT22;8234;41.480;2.306;2023-01-09T12:42:40;18.80;99.90
16253;DHT22;8234;41.480;2.306;2023-01-09T12:52:51;18.70;99.90
16253;DHT22;8234;41.480;2.306;2023-01-09T13:03:01;18.80;99.90
16253;DHT22;8234;41.480;2.306;2023-01-09T13:13:17;19.00;99.90
16253;DHT22;8234;41.480;2.306;2023-01-09T13:23:29;18.70;99.90
16253;DHT22;8234;41.480;2.306;2023-01-09T13:33:39;18.70;99.90
16253;DHT22;8234;41.480;2.306;2023-01-09T13:43:54;18.40;99.90
16253;DHT22;8234;41.480;2.306;2023-01-09T13:53:58;18.60;99.90
16253;DHT22;8234;41.480;2.306;2023-01-09T14:14:58;19.20;99.90
16253;DHT22;8234;41.480;2.306;2023-01-09T14:25:06;19.80;99.90
16253;DHT22;8234;41.480;2.306;2023-01-09T14:35:31;19.80;99.90
16253;DHT22;8234;41.480;2.306;2023-01-09T14:45:37;19.60;99.90
16253;DHT22;8234;41.480;2.306;2023-01-09T14:55:48;18.70;99.90
16253;DHT22;8234;41.480;2.306;2023-01-09T15:06:14;17.70;99.90
16253;DHT22;8234;41.480;2.306;2023-01-09T15:16:23;17.40;99.90
16253;DHT22;8234;41.480;2.306;2023-01-09T15:26:51;17.60;99.90
16253;DHT22;8234;41.480;2.306;2023-01-09T15:36:56;17.70;99.90
16253;DHT22;8234;41.480;2.306;2023-01-09T15:47:00;17.70;99.90
16253;DHT22;8234;41.480;2.306;2023-01-09T15:57:28;16.90;99.90
16253;DHT22;8234;41.480;2.306;2023-01-09T16:07:35;16.60;99.90
16253;DHT22;8234;41.480;2.306;2023-01-09T16:18:04;15.90;99.90
16253;DHT22;8234;41.480;2.306;2023-01-09T16:28:13;15.50;99.90
16253;DHT22;8234;41.480;2.306;2023-01-09T16:38:21;15.30;99.90
16253;DHT22;8234;41.480;2.306;2023-01-09T16:48:27;15.10;99.90
16253;DHT22;8234;41.480;2.306;2023-01-09T16:58:34;14.90;99.90
16253;DHT22;8234;41.480;2.306;2023-01-09T17:08:39;14.90;99.90
16253;DHT22;8234;41.480;2.306;2023-01-09T17:18:44;14.80;99.90
16253;DHT22;8234;41.480;2.306;2023-01-09T17:28:49;14.70;99.90
16253;DHT22;8234;41.480;2.306;2023-01-09T17:38:55;14.50;99.90
16253;DHT22;8234;41.480;2.306;2023-01-09T17:48:59;14.40;99.90
16253;DHT22;8234;41.480;2.306;2023-01-09T17:59:04;14.30;99.90
16253;DHT22;8234;41.480;2.306;2023-01-09T18:09:13;14.20;99.90
16253;DHT22;8234;41.480;2.306;2023-01-09T18:19:20;14.20;99.90
16253;DHT22;8234;41.480;2.306;2023-01-09T18:29:24;14.00;99.90
16253;DHT22;8234;41.480;2.306;2023-01-09T18:39:33;13.90;99.90
16253;DHT22;8234;41.480;2.306;2023-01-09T18:49:37;13.70;99.90
16253;DHT22;8234;41.480;2.306;2023-01-09T18:59:42;13.60;99.90
16253;DHT22;8234;41.480;2.306;2023-01-09T19:09:46;13.50;99.90
16253;DHT22;8234;41.480;2.306;2023-01-09T19:19:52;13.40;99.90
16253;DHT22;8234;41.480;2.306;2023-01-09T19:29:55;13.10;99.90
16253;DHT22;8234;41.480;2.306;2023-01-09T19:40:18;13.00;99.90
16253;DHT22;8234;41.480;2.306;2023-01-09T19:50:22;12.90;99.90
16253;DHT22;8234;41.480;2.306;2023-01-09T20:00:45;12.80;99.90
16253;DHT22;8234;41.480;2.306;2023-01-09T20:21:17;12.40;99.90
16253;DHT22;8234;41.480;2.306;2023-01-09T20:31:25;12.30;99.90
16253;DHT22;8234;41.480;2.306;2023-01-09T20:41:31;12.10;99.90
16253;DHT22;8234;41.480;2.306;2023-01-09T20:51:39;12.20;99.90
16253;DHT22;8234;41.480;2.306;2023-01-09T21:01:44;12.20;99.90
16253;DHT22;8234;41.480;2.306;2023-01-09T21:11:48;12.20;99.90
16253;DHT22;8234;41.480;2.306;2023-01-09T21:21:53;12.20;99.90
16253;DHT22;8234;41.480;2.306;2023-01-09T21:31:57;12.20;99.90
16253;DHT22;8234;41.480;2.306;2023-01-09T21:42:03;11.90;99.90
16253;DHT22;8234;41.480;2.306;2023-01-09T21:52:24;11.70;99.90
16253;DHT22;8234;41.480;2.306;2023-01-09T22:02:29;11.70;99.90
16253;DHT22;8234;41.480;2.306;2023-01-09T22:12:34;11.20;99.90
16253;DHT22;8234;41.480;2.306;2023-01-09T22:22:39;11.00;99.90
16253;DHT22;8234;41.480;2.306;2023-01-09T22:32:44;10.40;99.90
16253;DHT22;8234;41.480;2.306;2023-01-09T22:42:52;10.70;99.90
16253;DHT22;8234;41.480;2.306;2023-01-09T22:52:56;10.90;99.90
16253;DHT22;8234;41.480;2.306;2023-01-09T23:03:05;11.00;99.90
16253;DHT22;8234;41.480;2.306;2023-01-09T23:13:09;10.70;99.90
16253;DHT22;8234;41.480;2.306;2023-01-09T23:23:15;10.60;99.90
16253;DHT22;8234;41.480;2.306;2023-01-09T23:33:19;10.70;99.90
16253;DHT22;8234;41.480;2.306;2023-01-09T23:43:43;10.50;99.90
16253;DHT22;8234;41.480;2.306;2023-01-09T23:53:47;10.70;99.90
